createdAt,value
2018-02-05T12:04:51.274Z,24.60
2018-02-05T12:05:51.193Z,24.90
2018-02-05T12:06:51.183Z,21.80
2018-02-05T12:07:51.144Z,22.00
2018-02-05T12:08:51.122Z,22.90
2018-02-05T12:09:51.107Z,22.10
2018-02-05T12:10:51.089Z,22.90
2018-02-05T12:11:51.061Z,22.80
2018-02-05T12:12:51.044Z,21.40
2018-02-05T12:13:51.013Z,21.50
2018-02-05T12:14:50.992Z,22.60
2018-02-05T12:15:50.977Z,20.70
2018-02-05T12:16:50.955Z,22.00
2018-02-05T12:17:50.951Z,23.10
2018-02-05T12:18:50.917Z,21.60
2018-02-05T12:19:50.915Z,21.90
2018-02-05T12:20:50.930Z,22.60
2018-02-05T12:21:50.861Z,20.50
2018-02-05T12:22:50.872Z,19.90
2018-02-05T12:23:50.809Z,20.20
2018-02-05T12:24:50.787Z,19.70
2018-02-05T12:25:50.775Z,21.10
2018-02-05T12:26:50.735Z,19.30
2018-02-05T12:27:50.732Z,19.60
2018-02-05T12:28:50.716Z,21.50
2018-02-05T12:29:50.680Z,23.30
2018-02-05T12:30:50.668Z,22.40
2018-02-05T12:31:50.703Z,22.20
2018-02-05T12:32:50.630Z,19.60
2018-02-05T12:33:50.586Z,19.40
2018-02-05T12:34:50.579Z,18.10
2018-02-05T12:35:50.543Z,19.80
2018-02-05T12:36:50.535Z,19.20
2018-02-05T12:37:50.512Z,19.10
2018-02-05T12:38:50.473Z,18.80
2018-02-05T12:39:50.469Z,18.40
2018-02-05T12:40:50.438Z,19.30
2018-02-05T12:41:50.428Z,18.20
2018-02-05T12:42:50.388Z,18.50
2018-02-05T12:43:50.376Z,21.20
2018-02-05T12:44:50.386Z,19.90
2018-02-05T12:45:50.382Z,20.20
2018-02-05T12:46:50.349Z,21.20
2018-02-05T12:47:50.297Z,19.00
2018-02-05T12:48:50.259Z,17.90
2018-02-05T12:49:50.261Z,20.00
2018-02-05T12:50:50.292Z,19.60
2018-02-05T12:51:50.224Z,18.80
2018-02-05T12:52:50.197Z,20.10
2018-02-05T12:53:50.153Z,20.40
2018-02-05T12:54:50.134Z,18.40
2018-02-05T12:55:50.150Z,18.50
2018-02-05T12:56:50.090Z,18.90
2018-02-05T12:57:50.071Z,19.50
2018-02-05T12:58:50.059Z,19.70
2018-02-05T12:59:50.040Z,18.60
2018-02-05T13:00:50.018Z,20.10
2018-02-05T13:01:50.002Z,18.60
2018-02-05T13:02:50.025Z,19.10
2018-02-05T13:03:49.954Z,20.10
2018-02-05T13:04:49.923Z,19.40
2018-02-05T13:05:49.902Z,18.40
2018-02-05T13:06:49.873Z,18.30
2018-02-05T13:07:49.876Z,19.60
2018-02-05T13:08:49.842Z,18.30
2018-02-05T13:09:49.825Z,17.50
2018-02-05T13:10:49.815Z,19.80
2018-02-05T13:11:49.867Z,20.50
2018-02-05T13:12:49.745Z,21.40
2018-02-05T13:13:49.735Z,20.10
2018-02-05T13:14:49.713Z,20.00
2018-02-05T13:15:49.695Z,19.70
2018-02-05T13:16:49.667Z,18.70
2018-02-05T13:17:49.661Z,19.00
2018-02-05T13:18:49.648Z,20.20
2018-02-05T13:19:49.603Z,20.10
2018-02-05T13:20:49.574Z,20.10
2018-02-05T13:21:49.553Z,21.80
2018-02-05T13:22:49.547Z,21.20
2018-02-05T13:23:49.532Z,20.50
2018-02-05T13:24:49.478Z,20.90
2018-02-05T13:25:49.469Z,19.80
2018-02-05T13:26:49.436Z,20.10
2018-02-05T13:27:49.422Z,19.60
2018-02-05T13:28:49.451Z,20.50
2018-02-05T13:29:49.422Z,20.70
2018-02-05T13:30:49.381Z,18.70
2018-02-05T13:31:49.349Z,20.10
2018-02-05T13:32:49.333Z,20.10
2018-02-05T13:33:49.311Z,19.60
2018-02-05T13:34:49.272Z,20.90
2018-02-05T13:35:49.272Z,20.90
2018-02-05T13:36:49.235Z,21.40
2018-02-05T13:37:49.218Z,22.90
2018-02-05T13:38:49.190Z,23.30
2018-02-05T13:39:49.161Z,21.20
2018-02-05T13:40:49.151Z,19.90
2018-02-05T13:41:49.118Z,19.70
2018-02-05T13:42:49.135Z,19.90
2018-02-05T13:43:49.105Z,20.10
2018-02-05T13:44:49.139Z,20.00
2018-02-05T13:45:49.063Z,20.50
2018-02-05T13:46:49.008Z,20.30
2018-02-05T13:47:48.994Z,22.90
2018-02-05T13:48:48.985Z,22.50
2018-02-05T13:49:48.967Z,21.70
2018-02-05T13:50:48.935Z,20.40
2018-02-05T13:51:48.895Z,20.40
2018-02-05T13:52:48.905Z,19.90
2018-02-05T13:53:48.874Z,21.20
2018-02-05T13:54:48.838Z,19.80
2018-02-05T13:55:48.816Z,19.60
2018-02-05T13:56:48.796Z,20.30
2018-02-05T13:57:48.772Z,20.20
2018-02-05T13:58:48.757Z,20.20
2018-02-05T13:59:48.777Z,20.10
2018-02-05T14:00:48.734Z,18.90
2018-02-05T14:01:48.697Z,19.40
2018-02-05T14:02:48.658Z,19.40
2018-02-05T14:03:48.651Z,19.70
2018-02-05T14:04:48.635Z,18.10
2018-02-05T14:05:48.609Z,17.20
2018-02-05T14:06:48.582Z,18.60
2018-02-05T14:07:48.557Z,18.40
2018-02-05T14:08:48.536Z,18.50
2018-02-05T14:09:48.583Z,17.80
2018-02-05T14:10:48.500Z,19.20
2018-02-05T14:11:48.500Z,19.70
2018-02-05T14:12:48.462Z,19.00
2018-02-05T14:13:48.426Z,17.70
2018-02-05T14:14:48.412Z,18.10
2018-02-05T14:15:48.410Z,17.30
2018-02-05T14:16:48.362Z,17.50
2018-02-05T14:17:48.330Z,19.30
2018-02-05T14:18:48.313Z,18.90
2018-02-05T14:19:48.297Z,17.30
2018-02-05T14:20:48.281Z,17.60
2018-02-05T14:21:48.276Z,19.50
2018-02-05T14:22:48.296Z,18.80
2018-02-05T14:23:48.213Z,18.40
2018-02-05T14:24:48.241Z,18.30
2018-02-05T14:25:48.181Z,18.60
2018-02-05T14:26:48.148Z,18.80
2018-02-05T14:27:48.121Z,19.10
2018-02-05T14:28:48.156Z,18.60
2018-02-05T14:29:48.068Z,18.30
2018-02-05T14:30:48.068Z,19.00
2018-02-05T14:31:48.034Z,19.10
2018-02-05T14:32:48.024Z,18.50
2018-02-05T14:33:48.056Z,18.40
2018-02-05T14:34:48.049Z,19.20
2018-02-05T14:35:47.994Z,20.10
2018-02-05T14:36:47.952Z,20.70
2018-02-05T14:37:47.918Z,19.20
2018-02-05T14:38:47.903Z,19.60
2018-02-05T14:39:48.022Z,20.40
2018-02-05T14:40:47.843Z,18.00
2018-02-05T14:41:47.857Z,18.90
2018-02-05T14:42:47.819Z,16.90
2018-02-05T14:43:47.765Z,17.70
2018-02-05T14:44:47.744Z,18.90
2018-02-05T14:45:47.740Z,18.50
2018-02-05T14:46:47.713Z,18.40
2018-02-05T14:47:47.741Z,18.90
2018-02-05T14:48:47.668Z,17.80
2018-02-05T14:49:47.677Z,18.60
2018-02-05T14:50:47.660Z,17.90
2018-02-05T14:51:47.596Z,18.60
2018-02-05T14:52:47.577Z,19.30
2018-02-05T14:53:47.556Z,17.60
2018-02-05T14:54:47.555Z,18.60
2018-02-05T14:55:47.523Z,18.40
2018-02-05T14:56:47.486Z,17.30
2018-02-05T14:57:47.462Z,18.00
2018-02-05T14:58:47.451Z,19.00
2018-02-05T14:59:47.417Z,20.50
2018-02-05T15:00:47.392Z,18.80
2018-02-05T15:01:47.395Z,18.90
2018-02-05T15:02:47.352Z,18.70
2018-02-05T15:03:47.335Z,17.50
2018-02-05T15:04:47.309Z,17.60
2018-02-05T15:05:47.286Z,18.10
2018-02-05T15:06:47.262Z,18.30
2018-02-05T15:07:47.241Z,16.60
2018-02-05T15:08:47.224Z,18.30
2018-02-05T15:09:47.204Z,19.20
2018-02-05T15:10:47.177Z,18.80
2018-02-05T15:11:47.169Z,18.30
2018-02-05T15:12:47.184Z,17.70
2018-02-05T15:13:47.127Z,17.90
2018-02-05T15:14:47.134Z,19.50
2018-02-05T15:15:47.076Z,20.30
2018-02-05T15:16:47.130Z,18.70
2018-02-05T15:17:47.035Z,18.10
2018-02-05T15:18:47.078Z,20.30
2018-02-05T15:19:46.999Z,17.30
2018-02-05T15:20:47.008Z,18.60
2018-02-05T15:21:46.965Z,18.20
2018-02-05T15:22:46.921Z,18.20
2018-02-05T15:23:46.918Z,18.70
2018-02-05T15:24:46.906Z,20.00
2018-02-05T15:25:46.857Z,19.50
2018-02-05T15:26:46.825Z,19.10
2018-02-05T15:27:46.808Z,19.30
2018-02-05T15:28:46.784Z,19.60
2018-02-05T15:29:46.796Z,17.50
2018-02-05T15:30:46.804Z,17.50
2018-02-05T15:31:46.735Z,18.80
2018-02-05T15:32:46.695Z,18.90
2018-02-05T15:33:46.675Z,20.00
2018-02-05T15:34:46.651Z,19.60
2018-02-05T15:35:46.628Z,19.90
2018-02-05T15:36:46.619Z,19.60
2018-02-05T15:37:46.603Z,19.40
2018-02-05T15:38:46.587Z,19.70
2018-02-05T15:39:46.533Z,21.00
2018-02-05T15:40:46.524Z,20.00
2018-02-05T15:41:47.107Z,17.60
2018-02-05T15:42:46.593Z,18.80
2018-02-05T15:43:46.710Z,18.70
2018-02-05T15:44:46.449Z,19.50
2018-02-05T15:45:46.425Z,17.80
2018-02-05T15:46:46.409Z,18.50
2018-02-05T15:47:46.465Z,17.70
2018-02-05T15:48:46.341Z,18.80
2018-02-05T15:49:46.324Z,17.60
2018-02-05T15:50:46.299Z,18.60
2018-02-05T15:51:46.282Z,17.30
2018-02-05T15:52:46.253Z,18.10
2018-02-05T15:53:46.243Z,17.60
2018-02-05T15:54:46.220Z,17.80
2018-02-05T15:55:46.189Z,18.20
2018-02-05T15:56:46.189Z,18.20
2018-02-05T15:57:46.168Z,18.30
2018-02-05T15:58:46.135Z,17.70
2018-02-05T15:59:46.123Z,18.80
2018-02-05T16:00:46.086Z,18.50
2018-02-05T16:01:46.052Z,17.30
2018-02-05T16:02:46.038Z,19.00
2018-02-05T16:03:46.022Z,17.70
2018-02-05T16:04:45.990Z,19.30
2018-02-05T16:05:45.967Z,19.40
2018-02-05T16:06:45.937Z,19.50
2018-02-05T16:07:45.920Z,18.60
2018-02-05T16:08:45.913Z,20.10
2018-02-05T16:09:45.875Z,20.80
2018-02-05T16:10:45.897Z,19.50
2018-02-05T16:11:45.830Z,20.00
2018-02-05T16:12:45.818Z,20.40
2018-02-05T16:13:45.783Z,20.20
2018-02-05T16:14:45.767Z,21.30
2018-02-05T16:15:45.759Z,21.00
2018-02-05T16:16:45.712Z,21.80
2018-02-05T16:17:45.687Z,21.00
2018-02-05T16:18:45.686Z,18.50
2018-02-05T16:19:45.662Z,21.00
2018-02-05T16:20:45.629Z,20.40
2018-02-05T16:21:45.603Z,19.70
2018-02-05T16:22:45.597Z,20.70
2018-02-05T16:23:45.555Z,21.30
2018-02-05T16:24:45.549Z,20.60
2018-02-05T16:25:45.546Z,21.30
2018-02-05T16:26:45.500Z,20.60
2018-02-05T16:27:45.473Z,19.30
2018-02-05T16:28:45.446Z,21.20
2018-02-05T16:29:45.438Z,20.00
2018-02-05T16:30:45.409Z,21.10
2018-02-05T16:31:45.388Z,19.10
2018-02-05T16:32:45.385Z,20.20
2018-02-05T16:33:45.329Z,20.30
2018-02-05T16:34:45.314Z,19.50
2018-02-05T16:35:45.403Z,20.00
2018-02-05T16:36:45.268Z,20.20
2018-02-05T16:37:45.264Z,18.80
2018-02-05T16:38:45.217Z,20.50
2018-02-05T16:39:45.199Z,19.80
2018-02-05T16:40:45.179Z,20.40
2018-02-05T16:41:45.157Z,19.50
2018-02-05T16:42:45.135Z,20.50
2018-02-05T16:43:45.114Z,19.50
2018-02-05T16:44:45.086Z,19.20
2018-02-05T16:45:45.077Z,20.40
2018-02-05T16:46:45.042Z,19.10
2018-02-05T16:47:45.026Z,20.00
2018-02-05T16:48:45.001Z,21.00
2018-02-05T16:49:44.978Z,21.40
2018-02-05T16:50:44.965Z,21.30
2018-02-05T16:51:44.938Z,20.40
2018-02-05T16:52:44.904Z,19.30
2018-02-05T16:53:44.912Z,20.80
2018-02-05T16:54:44.874Z,19.50
2018-02-05T16:55:44.852Z,20.50
2018-02-05T16:56:44.844Z,20.00
2018-02-05T16:57:44.795Z,20.10
2018-02-05T16:58:44.799Z,20.50
2018-02-05T16:59:44.745Z,19.80
2018-02-05T17:00:44.782Z,20.90
2018-02-05T17:01:44.711Z,20.60
2018-02-05T17:02:44.693Z,19.20
2018-02-05T17:03:44.662Z,19.00
2018-02-05T17:04:44.717Z,20.70
2018-02-05T17:05:44.618Z,20.40
2018-02-05T17:06:44.596Z,20.20
2018-02-05T17:07:44.556Z,18.60
2018-02-05T17:08:44.544Z,20.90
2018-02-05T17:09:44.526Z,19.90
2018-02-05T17:10:44.498Z,20.60
2018-02-05T17:11:44.483Z,21.20
2018-02-05T17:12:44.448Z,21.60
2018-02-05T17:13:44.436Z,23.00
2018-02-05T17:14:44.418Z,21.50
2018-02-05T17:15:44.469Z,21.30
2018-02-05T17:16:44.355Z,21.70
2018-02-05T17:17:44.340Z,19.00
2018-02-05T17:18:44.317Z,21.50
2018-02-05T17:19:44.292Z,20.70
2018-02-05T17:20:44.275Z,20.50
2018-02-05T17:21:44.244Z,21.30
2018-02-05T17:22:44.227Z,21.50
2018-02-05T17:23:44.211Z,21.50
2018-02-05T17:24:44.182Z,20.90
2018-02-05T17:25:44.162Z,20.80
2018-02-05T17:26:44.123Z,21.90
2018-02-05T17:27:44.103Z,21.70
2018-02-05T17:28:44.082Z,19.80
2018-02-05T17:29:44.063Z,20.70
2018-02-05T17:30:44.046Z,20.50
2018-02-05T17:31:44.019Z,19.30
2018-02-05T17:32:43.994Z,21.20
2018-02-05T17:33:43.967Z,20.50
2018-02-05T17:34:43.955Z,21.30
2018-02-05T17:35:43.916Z,21.10
2018-02-05T17:36:43.896Z,20.90
2018-02-05T17:37:43.880Z,21.70
2018-02-05T17:38:43.861Z,21.60
2018-02-05T17:39:43.860Z,20.80
2018-02-05T17:40:43.807Z,20.30
2018-02-05T17:41:43.780Z,21.30
2018-02-05T17:42:43.762Z,21.80
2018-02-05T17:43:43.730Z,21.10
2018-02-05T17:44:43.756Z,21.10
2018-02-05T17:45:43.710Z,20.80
2018-02-05T17:46:43.668Z,21.80
2018-02-05T17:47:43.675Z,21.00
2018-02-05T17:48:43.614Z,20.10
2018-02-05T17:49:43.605Z,21.90
2018-02-05T17:50:43.572Z,22.30
2018-02-05T17:51:43.540Z,19.70
2018-02-05T17:52:43.547Z,21.00
2018-02-05T17:53:43.535Z,20.80
2018-02-05T17:54:43.482Z,20.30
2018-02-05T17:55:43.465Z,21.50
2018-02-05T17:56:43.466Z,20.40
2018-02-05T17:57:43.412Z,20.10
2018-02-05T17:58:43.424Z,21.00
2018-02-05T17:59:43.376Z,22.00
2018-02-05T18:00:43.369Z,21.50
2018-02-05T18:01:43.336Z,21.20
2018-02-05T18:02:43.301Z,21.10
2018-02-05T18:03:43.274Z,21.50
2018-02-05T18:04:43.242Z,21.90
2018-02-05T18:05:43.222Z,21.10
2018-02-05T18:06:43.200Z,20.70
2018-02-05T18:07:43.181Z,21.00
2018-02-05T18:08:43.152Z,20.30
2018-02-05T18:09:43.144Z,21.00
2018-02-05T18:10:43.109Z,21.70
2018-02-05T18:11:43.088Z,20.50
2018-02-05T18:12:43.065Z,22.80
2018-02-05T18:13:43.053Z,20.90
2018-02-05T18:14:43.030Z,22.00
2018-02-05T18:15:42.990Z,21.60
2018-02-05T18:16:42.970Z,22.50
2018-02-05T18:17:42.949Z,22.40
2018-02-05T18:18:42.917Z,21.00
2018-02-05T18:19:42.900Z,20.20
2018-02-05T18:20:42.873Z,20.70
2018-02-05T18:21:42.840Z,20.40
2018-02-05T18:22:42.829Z,20.80
2018-02-05T18:23:42.802Z,21.60
2018-02-05T18:24:42.784Z,21.40
2018-02-05T18:25:42.761Z,21.90
2018-02-05T18:26:42.728Z,23.40
2018-02-05T18:27:42.725Z,21.90
2018-02-05T18:28:42.681Z,22.10
2018-02-05T18:29:42.676Z,20.70
2018-02-05T18:30:42.661Z,22.60
2018-02-05T18:31:42.635Z,22.10
2018-02-05T18:32:42.632Z,22.20
2018-02-05T18:33:42.570Z,21.50
2018-02-05T18:34:42.541Z,20.80
2018-02-05T18:35:42.511Z,21.80
2018-02-05T18:36:42.536Z,21.40
2018-02-05T18:37:42.486Z,21.30
2018-02-05T18:38:42.453Z,21.60
2018-02-05T18:39:42.495Z,24.00
2018-02-05T18:40:42.420Z,24.20
2018-02-05T18:41:42.400Z,24.50
2018-02-05T18:42:42.411Z,24.80
2018-02-05T18:43:42.349Z,22.40
2018-02-05T18:44:42.333Z,23.50
2018-02-05T18:45:42.320Z,22.40
2018-02-05T18:46:42.262Z,23.80
2018-02-05T18:47:42.233Z,22.80
2018-02-05T18:48:42.209Z,23.10
2018-02-05T18:49:42.202Z,23.50
2018-02-05T18:50:42.180Z,23.40
2018-02-05T18:51:42.145Z,21.40
2018-02-05T18:52:42.125Z,22.50
2018-02-05T18:53:42.110Z,22.70
2018-02-05T18:54:42.070Z,21.40
2018-02-05T18:55:42.052Z,21.40
2018-02-05T18:56:42.076Z,22.50
2018-02-05T18:57:41.996Z,22.10
2018-02-05T18:58:41.999Z,22.70
2018-02-05T18:59:41.955Z,22.10
2018-02-05T19:00:41.931Z,22.20
2018-02-05T19:01:41.902Z,22.00
2018-02-05T19:02:41.881Z,21.20
2018-02-05T19:03:41.858Z,22.40
2018-02-05T19:04:41.875Z,22.60
2018-02-05T19:05:41.810Z,23.50
2018-02-05T19:06:41.807Z,21.10
2018-02-05T19:07:41.843Z,21.70
2018-02-05T19:08:41.742Z,21.60
2018-02-05T19:09:41.715Z,22.30
2018-02-05T19:10:41.692Z,21.80
2018-02-05T19:11:41.696Z,23.10
2018-02-05T19:12:41.681Z,22.90
2018-02-05T19:13:41.642Z,22.30
2018-02-05T19:14:41.626Z,21.20
2018-02-05T19:15:41.576Z,22.50
2018-02-05T19:16:41.549Z,22.00
2018-02-05T19:17:41.539Z,24.20
2018-02-05T19:18:41.509Z,24.00
2018-02-05T19:19:41.487Z,22.60
2018-02-05T19:20:41.463Z,22.10
2018-02-05T19:21:41.438Z,23.60
2018-02-05T19:22:41.403Z,21.80
2018-02-05T19:23:41.394Z,22.10
2018-02-05T19:24:41.358Z,22.60
2018-02-05T19:25:41.342Z,21.90
2018-02-05T19:26:41.318Z,22.70
2018-02-05T19:27:41.298Z,21.10
2018-02-05T19:28:41.276Z,21.20
2018-02-05T19:29:41.245Z,22.50
2018-02-05T19:30:41.242Z,23.70
2018-02-05T19:31:41.208Z,21.80
2018-02-05T19:32:41.202Z,22.20
2018-02-05T19:33:41.166Z,21.50
2018-02-05T19:34:41.167Z,20.00
2018-02-05T19:35:41.109Z,22.80
2018-02-05T19:36:41.080Z,22.10
2018-02-05T19:37:41.070Z,21.80
2018-02-05T19:38:41.033Z,22.30
2018-02-05T19:39:41.019Z,20.40
2018-02-05T19:40:40.984Z,21.90
2018-02-05T19:41:40.955Z,21.80
2018-02-05T19:42:40.940Z,21.20
2018-02-05T19:43:40.913Z,22.30
2018-02-05T19:44:40.944Z,22.10
2018-02-05T19:45:40.880Z,22.70
2018-02-05T19:46:40.841Z,21.90
2018-02-05T19:47:40.831Z,21.90
2018-02-05T19:48:40.791Z,21.20
2018-02-05T19:49:40.771Z,22.70
2018-02-05T19:50:40.831Z,22.70
2018-02-05T19:51:40.728Z,22.10
2018-02-05T19:52:40.695Z,23.00
2018-02-05T19:53:40.676Z,22.30
2018-02-05T19:54:40.647Z,21.70
2018-02-05T19:55:40.625Z,22.00
2018-02-05T19:56:40.600Z,22.30
2018-02-05T19:57:40.585Z,21.70
2018-02-05T19:58:40.561Z,19.60
2018-02-05T19:59:40.537Z,23.30
2018-02-05T20:00:40.503Z,22.20
2018-02-05T20:01:40.483Z,21.40
2018-02-05T20:02:40.469Z,22.50
2018-02-05T20:03:40.433Z,22.30
2018-02-05T20:04:40.412Z,20.50
2018-02-05T20:05:40.409Z,22.00
2018-02-05T20:06:40.380Z,20.60
2018-02-05T20:07:40.343Z,21.90
2018-02-05T20:08:40.316Z,20.80
2018-02-05T20:09:40.297Z,23.20
2018-02-05T20:10:40.266Z,21.50
2018-02-05T20:11:40.242Z,23.00
2018-02-05T20:12:40.223Z,23.40
2018-02-05T20:13:40.226Z,22.10
2018-02-05T20:14:40.172Z,21.10
2018-02-05T20:15:40.151Z,20.80
2018-02-05T20:16:40.126Z,22.10
2018-02-05T20:17:40.200Z,21.40
2018-02-05T20:18:40.078Z,21.80
2018-02-05T20:19:40.055Z,20.60
2018-02-05T20:20:40.031Z,20.10
2018-02-05T20:21:40.002Z,21.70
2018-02-05T20:22:40.006Z,21.20
2018-02-05T20:23:39.960Z,21.20
2018-02-05T20:24:39.932Z,20.90
2018-02-05T20:25:39.909Z,22.10
2018-02-05T20:26:39.884Z,21.50
2018-02-05T20:27:39.891Z,22.90
2018-02-05T20:28:39.844Z,21.10
2018-02-05T20:29:39.810Z,22.50
2018-02-05T20:30:39.783Z,21.70
2018-02-05T20:31:39.760Z,22.50
2018-02-05T20:32:39.735Z,21.70
2018-02-05T20:33:39.711Z,22.00
2018-02-05T20:34:39.692Z,22.30
2018-02-05T20:35:39.669Z,23.10
2018-02-05T20:36:39.683Z,23.90
2018-02-05T20:37:39.621Z,21.10
2018-02-05T20:38:39.620Z,20.70
2018-02-05T20:39:39.590Z,21.00
2018-02-05T20:40:39.565Z,22.20
2018-02-05T20:41:39.527Z,21.00
2018-02-05T20:42:39.620Z,21.30
2018-02-05T20:43:39.556Z,20.90
2018-02-05T20:44:39.592Z,20.90
2018-02-05T20:45:39.451Z,22.60
2018-02-05T20:46:39.407Z,22.00
2018-02-05T20:47:39.389Z,20.80
2018-02-05T20:48:39.353Z,21.60
2018-02-05T20:49:39.328Z,21.30
2018-02-05T20:50:39.312Z,21.70
2018-02-05T20:51:39.274Z,22.70
2018-02-05T20:52:39.249Z,21.80
2018-02-05T20:53:39.227Z,21.60
2018-02-05T20:54:39.204Z,22.40
2018-02-05T20:55:39.178Z,20.00
2018-02-05T20:56:39.157Z,20.60
2018-02-05T20:57:39.133Z,20.70
2018-02-05T20:58:39.112Z,22.00
2018-02-05T20:59:39.084Z,22.80
2018-02-05T21:00:39.056Z,22.60
2018-02-05T21:01:39.036Z,21.10
2018-02-05T21:02:39.015Z,21.70
2018-02-05T21:03:38.983Z,21.50
2018-02-05T21:04:38.960Z,21.20
2018-02-05T21:05:38.942Z,20.00
2018-02-05T21:06:38.911Z,21.80
2018-02-05T21:07:38.903Z,22.00
2018-02-05T21:08:38.865Z,23.50
2018-02-05T21:09:38.834Z,21.00
2018-02-05T21:10:38.813Z,22.40
2018-02-05T21:11:38.790Z,22.30
2018-02-05T21:12:38.771Z,20.40
2018-02-05T21:13:38.737Z,19.80
2018-02-05T21:14:38.736Z,19.20
2018-02-05T21:15:38.708Z,22.30
2018-02-05T21:16:38.668Z,21.50
2018-02-05T21:17:38.644Z,21.20
2018-02-05T21:18:38.620Z,20.70
2018-02-05T21:19:38.597Z,20.70
2018-02-05T21:20:38.574Z,21.10
2018-02-05T21:21:38.547Z,21.10
2018-02-05T21:22:38.521Z,20.10
2018-02-05T21:23:38.524Z,20.60
2018-02-05T21:24:38.490Z,21.00
2018-02-05T21:25:38.448Z,22.40
2018-02-05T21:26:38.425Z,20.10
2018-02-05T21:27:38.396Z,20.50
2018-02-05T21:28:38.376Z,21.50
2018-02-05T21:29:38.348Z,20.80
2018-02-05T21:30:38.327Z,20.60
2018-02-05T21:31:38.303Z,20.80
2018-02-05T21:32:38.276Z,21.20
2018-02-05T21:33:38.274Z,20.50
2018-02-05T21:34:38.230Z,21.10
2018-02-05T21:35:38.214Z,21.10
2018-02-05T21:36:38.184Z,21.70
2018-02-05T21:37:38.152Z,21.30
2018-02-05T21:38:38.151Z,21.40
2018-02-05T21:39:38.108Z,20.40
2018-02-05T21:40:38.080Z,20.60
2018-02-05T21:41:38.073Z,20.90
2018-02-05T21:42:38.034Z,22.10
2018-02-05T21:43:38.008Z,20.90
2018-02-05T21:44:38.017Z,20.90
2018-02-05T21:45:37.959Z,22.20
2018-02-05T21:46:37.935Z,21.60
2018-02-05T21:47:37.911Z,22.10
2018-02-05T21:48:37.889Z,21.90
2018-02-05T21:49:37.936Z,22.00
2018-02-05T21:50:37.955Z,21.80
2018-02-05T21:51:37.815Z,21.60
2018-02-05T21:52:37.792Z,21.90
2018-02-05T21:53:37.788Z,22.90
2018-02-05T21:54:37.747Z,21.90
2018-02-05T21:55:37.715Z,21.80
2018-02-05T21:56:37.691Z,21.40
2018-02-05T21:57:37.690Z,20.70
2018-02-05T21:58:37.644Z,21.80
2018-02-05T21:59:37.623Z,20.90
2018-02-05T22:00:37.598Z,21.80
2018-02-05T22:01:37.577Z,21.80
2018-02-05T22:02:37.548Z,23.30
2018-02-05T22:03:37.519Z,22.00
2018-02-05T22:04:37.499Z,23.10
2018-02-05T22:05:37.476Z,23.50
2018-02-05T22:06:37.449Z,22.90
2018-02-05T22:07:37.424Z,22.20
2018-02-05T22:08:37.408Z,22.40
2018-02-05T22:09:37.376Z,21.00
2018-02-05T22:10:37.350Z,22.40
2018-02-05T22:11:37.336Z,21.90
2018-02-05T22:12:37.307Z,22.30
2018-02-05T22:13:37.275Z,21.50
2018-02-05T22:14:37.251Z,21.10
2018-02-05T22:15:37.226Z,20.80
2018-02-05T22:16:37.207Z,22.30
2018-02-05T22:17:37.182Z,21.10
2018-02-05T22:18:37.153Z,21.90
2018-02-05T22:19:37.143Z,22.10
2018-02-05T22:20:37.107Z,20.80
2018-02-05T22:21:37.090Z,21.70
2018-02-05T22:22:37.058Z,21.90
2018-02-05T22:23:37.037Z,21.40
2018-02-05T22:24:37.012Z,20.60
2018-02-05T22:25:36.985Z,20.40
2018-02-05T22:26:36.960Z,22.30
2018-02-05T22:27:36.938Z,20.80
2018-02-05T22:28:36.910Z,20.40
2018-02-05T22:29:36.885Z,20.00
2018-02-05T22:30:36.866Z,20.80
2018-02-05T22:31:36.854Z,21.80
2018-02-05T22:32:36.834Z,20.70
2018-02-05T22:33:36.788Z,21.10
2018-02-05T22:34:36.762Z,20.20
2018-02-05T22:35:36.740Z,20.20
2018-02-05T22:36:36.714Z,20.40
2018-02-05T22:37:36.688Z,19.30
2018-02-05T22:38:36.668Z,19.30
2018-02-05T22:39:36.644Z,20.20
2018-02-05T22:40:36.619Z,19.50
2018-02-05T22:41:36.591Z,20.30
2018-02-05T22:42:36.571Z,19.70
2018-02-05T22:43:36.545Z,20.00
2018-02-05T22:44:36.528Z,19.60
2018-02-05T22:45:36.494Z,18.30
2018-02-05T22:46:36.481Z,19.30
2018-02-05T22:47:36.448Z,18.90
2018-02-05T22:48:36.423Z,18.80
2018-02-05T22:49:36.443Z,19.30
2018-02-05T22:50:36.378Z,18.80
2018-02-05T22:51:36.345Z,18.60
2018-02-05T22:52:36.321Z,18.90
2018-02-05T22:53:36.296Z,18.80
2018-02-05T22:54:36.276Z,19.40
2018-02-05T22:55:36.247Z,19.10
2018-02-05T22:56:36.224Z,19.00
2018-02-05T22:57:36.198Z,17.50
2018-02-05T22:58:36.178Z,18.00
2018-02-05T22:59:36.153Z,17.70
2018-02-05T23:00:36.139Z,18.70
2018-02-05T23:01:36.100Z,18.50
2018-02-05T23:02:36.079Z,19.20
2018-02-05T23:03:36.053Z,18.40
2018-02-05T23:04:36.041Z,17.20
2018-02-05T23:05:36.011Z,17.90
2018-02-05T23:06:35.989Z,17.90
2018-02-05T23:07:35.955Z,17.80
2018-02-05T23:08:35.931Z,18.60
2018-02-05T23:09:35.902Z,16.80
2018-02-05T23:10:35.881Z,17.10
2018-02-05T23:11:35.863Z,19.40
2018-02-05T23:12:35.827Z,18.40
2018-02-05T23:13:35.804Z,17.20
2018-02-05T23:14:35.780Z,17.40
2018-02-05T23:15:35.757Z,17.20
2018-02-05T23:16:35.748Z,17.00
2018-02-05T23:17:35.710Z,17.00
2018-02-05T23:18:35.718Z,17.40
2018-02-05T23:19:35.655Z,18.60
2018-02-05T23:20:35.630Z,18.10
2018-02-05T23:21:35.609Z,16.90
2018-02-05T23:22:35.580Z,16.00
2018-02-05T23:23:35.555Z,16.60
2018-02-05T23:24:35.531Z,16.70
2018-02-05T23:25:35.514Z,17.00
2018-02-05T23:26:35.485Z,16.10
2018-02-05T23:27:35.456Z,16.60
2018-02-05T23:28:35.436Z,15.30
2018-02-05T23:29:35.410Z,17.20
2018-02-05T23:30:35.386Z,17.20
2018-02-05T23:31:35.363Z,17.20
2018-02-05T23:32:35.336Z,16.60
2018-02-05T23:33:35.307Z,17.30
2018-02-05T23:34:35.288Z,16.60
2018-02-05T23:35:35.261Z,16.10
2018-02-05T23:36:35.234Z,15.50
2018-02-05T23:37:35.213Z,16.60
2018-02-05T23:38:35.183Z,17.50
2018-02-05T23:39:35.160Z,16.90
2018-02-05T23:40:35.138Z,16.50
2018-02-05T23:41:35.112Z,15.70
2018-02-05T23:42:35.108Z,17.00
2018-02-05T23:43:35.085Z,15.60
2018-02-05T23:44:35.038Z,17.40
2018-02-05T23:45:35.012Z,15.60
2018-02-05T23:46:34.988Z,16.40
2018-02-05T23:47:34.961Z,15.30
2018-02-05T23:48:34.934Z,15.50
2018-02-05T23:49:34.913Z,15.00
2018-02-05T23:50:34.884Z,15.10
2018-02-05T23:51:34.865Z,16.50
2018-02-05T23:52:34.839Z,15.50
2018-02-05T23:53:34.809Z,16.50
2018-02-05T23:54:34.785Z,14.80
2018-02-05T23:55:34.759Z,16.60
2018-02-05T23:56:34.740Z,16.60
2018-02-05T23:57:34.709Z,15.80
2018-02-05T23:58:34.697Z,17.10
2018-02-05T23:59:34.675Z,16.30
